Time;durP1;ratioP1;P1;durP2;ratioP2;P2;SDS_P1;SDS_P2;PMS_P1;PMS_P2;Temp;Humidity;BMP_temperature;BMP_pressure;BME280_temperature;BME280_humidity;BME280_pressure;Samples;Min_cycle;Max_cycle;Signal;HPM_P1;HPM_P2
2021/10/07 00:00:25;;;;;;;1.10;1.10;;;10.80;99.90;;;;;;6222417;22;20388;-89
2021/10/07 00:03:10;;;;;;;1.20;1.20;;;11.00;99.90;;;;;;6221051;22;20365;-84
2021/10/07 00:05:54;;;;;;;1.27;1.17;;;10.90;99.90;;;;;;6201283;22;20365;-88
2021/10/07 04:48:01;;;;;;;1.20;1.20;;;7.20;99.90;;;;;;6164896;23;20383;-81
2021/10/07 04:50:45;;;;;;;1.00;0.95;;;7.20;99.90;;;;;;6136393;23;20422;-80
2021/10/07 04:53:30;;;;;;;0.95;0.95;;;7.10;99.90;;;;;;6126624;23;20370;-80
2021/10/07 04:56:15;;;;;;;1.20;1.10;;;7.00;99.90;;;;;;6125706;23;20962;-80
2021/10/07 04:59:00;;;;;;;1.20;1.20;;;7.00;99.90;;;;;;6134859;23;20373;-82
2021/10/07 05:01:44;;;;;;;1.00;1.00;;;7.00;99.90;;;;;;6115560;23;20379;-82
2021/10/07 05:04:29;;;;;;;1.63;1.30;;;7.00;99.90;;;;;;6158554;23;20428;-83
2021/10/07 05:07:13;;;;;;;1.00;1.00;;;7.00;99.90;;;;;;6138452;23;20368;-83
2021/10/07 05:09:58;;;;;;;1.00;1.00;;;7.10;99.90;;;;;;6179794;23;20432;-82
2021/10/07 05:12:43;;;;;;;1.10;1.00;;;6.90;99.90;;;;;;6118844;23;20373;-82
2021/10/07 05:15:27;;;;;;;0.98;0.98;;;6.90;99.90;;;;;;6139732;23;20420;-82
2021/10/07 05:18:12;;;;;;;1.05;1.05;;;6.90;99.90;;;;;;6133056;23;20407;-83
2021/10/07 05:20:59;;;;;;;1.05;1.05;;;6.90;99.90;;;;;;6135964;23;20440;-83
2021/10/07 05:23:44;;;;;;;1.00;1.00;;;6.90;99.90;;;;;;6179020;23;20412;-83
2021/10/07 05:26:29;;;;;;;0.80;0.80;;;6.80;99.90;;;;;;6156747;23;20701;-82
2021/10/07 05:29:13;;;;;;;1.25;1.08;;;6.70;99.90;;;;;;6137128;23;20517;-83
2021/10/07 05:31:58;;;;;;;1.25;1.25;;;6.60;99.90;;;;;;6106703;23;20479;-82
2021/10/07 05:34:42;;;;;;;1.00;1.00;;;6.70;99.90;;;;;;6136416;23;20471;-83
2021/10/07 05:37:28;;;;;;;1.08;1.08;;;6.70;99.90;;;;;;6114537;23;20739;-83
2021/10/07 05:40:12;;;;;;;0.80;0.80;;;6.70;99.90;;;;;;6127598;23;20421;-83
2021/10/07 05:42:57;;;;;;;1.00;1.00;;;6.60;99.90;;;;;;6146007;23;20415;-80
2021/10/07 05:46:39;;;;;;;0.90;0.90;;;6.80;99.90;;;;;;6119779;23;20411;-80
2021/10/07 06:02:38;;;;;;;0.90;0.90;;;6.90;99.90;;;;;;6154038;22;20404;-80
2021/10/07 06:05:24;;;;;;;0.90;0.90;;;6.90;99.90;;;;;;6105547;23;20416;-80
2021/10/07 06:08:09;;;;;;;0.90;0.90;;;6.90;99.90;;;;;;6138492;23;20444;-80
2021/10/07 06:10:54;;;;;;;1.10;1.00;;;7.00;99.90;;;;;;6120027;23;20398;-80
2021/10/07 06:13:39;;;;;;;1.10;1.10;;;7.00;99.90;;;;;;6105466;23;20377;-80
2021/10/07 06:16:26;;;;;;;1.00;1.00;;;7.10;99.90;;;;;;6105201;23;20368;-80
2021/10/07 06:19:15;;;;;;;1.30;1.20;;;7.10;99.90;;;;;;6123068;23;20376;-80
2021/10/07 06:22:02;;;;;;;1.00;1.00;;;7.10;99.90;;;;;;6148259;23;20741;-80
2021/10/07 06:24:48;;;;;;;1.10;1.00;;;7.30;99.90;;;;;;6129419;23;20439;-80
2021/10/07 06:27:34;;;;;;;1.17;1.10;;;7.40;99.90;;;;;;6110404;23;20364;-82
2021/10/07 06:30:18;;;;;;;1.10;1.10;;;7.40;99.90;;;;;;6133374;23;20400;-82
2021/10/07 06:33:04;;;;;;;1.30;1.30;;;7.40;99.90;;;;;;6123074;23;20377;-83
2021/10/07 06:35:52;;;;;;;1.30;1.20;;;7.50;99.90;;;;;;6126530;23;20384;-83
2021/10/07 06:38:37;;;;;;;1.25;1.23;;;7.60;99.90;;;;;;6102615;23;20384;-82
2021/10/07 06:41:23;;;;;;;2.58;1.58;;;7.70;99.90;;;;;;6132584;23;20376;-82
2021/10/07 06:44:10;;;;;;;1.45;1.38;;;7.80;99.90;;;;;;6142772;23;20373;-80
2021/10/07 06:46:55;;;;;;;1.35;1.25;;;7.80;99.90;;;;;;6136476;23;20743;-80
2021/10/07 06:49:42;;;;;;;1.00;1.00;;;7.80;99.90;;;;;;6111610;23;20386;-80
2021/10/07 06:52:28;;;;;;;1.50;1.40;;;7.90;99.90;;;;;;6113443;23;20430;-80
2021/10/07 06:55:15;;;;;;;2.20;1.10;;;8.00;99.90;;;;;;6143467;23;20432;-80
2021/10/07 06:58:01;;;;;;;1.90;1.80;;;8.10;99.90;;;;;;6119781;23;20740;-80
2021/10/07 07:00:47;;;;;;;1.42;1.33;;;8.10;99.90;;;;;;6121396;23;20425;-80
2021/10/07 07:03:33;;;;;;;1.60;1.50;;;8.20;99.90;;;;;;6077331;23;20515;-80
2021/10/07 07:06:18;;;;;;;1.17;1.15;;;8.20;99.90;;;;;;6091444;23;20370;-80
2021/10/07 07:09:04;;;;;;;1.80;1.70;;;8.20;99.90;;;;;;6109232;23;20437;-80
2021/10/07 07:11:51;;;;;;;1.73;1.63;;;8.40;99.90;;;;;;6120067;23;20771;-80
2021/10/07 07:14:37;;;;;;;1.90;1.80;;;8.40;99.90;;;;;;6095066;23;20512;-80
2021/10/07 07:17:22;;;;;;;1.90;1.80;;;8.40;99.90;;;;;;6092017;23;20413;-80
2021/10/07 07:20:10;;;;;;;2.00;1.90;;;8.60;99.90;;;;;;6097835;23;20485;-80
2021/10/07 07:22:55;;;;;;;1.85;1.70;;;8.70;99.90;;;;;;6096804;23;20374;-80
2021/10/07 07:25:40;;;;;;;2.30;1.73;;;8.80;99.90;;;;;;6074676;23;20379;-80
2021/10/07 07:28:26;;;;;;;1.70;1.60;;;8.90;99.90;;;;;;6114147;23;20389;-80
2021/10/07 07:31:12;;;;;;;1.85;1.70;;;8.90;99.90;;;;;;6095985;23;20530;-80
2021/10/07 07:33:59;;;;;;;2.50;2.30;;;9.00;99.90;;;;;;6077461;23;20430;-80
2021/10/07 07:36:44;;;;;;;2.00;1.85;;;9.10;99.90;;;;;;6098072;23;20374;-80
2021/10/07 07:39:30;;;;;;;2.40;2.20;;;9.10;99.90;;;;;;6110832;23;20370;-80
2021/10/07 07:42:15;;;;;;;1.90;1.80;;;9.20;99.90;;;;;;6116520;23;20466;-80
2021/10/07 07:45:01;;;;;;;1.77;1.67;;;9.30;99.90;;;;;;6073816;23;20375;-80
2021/10/07 07:47:46;;;;;;;2.35;1.70;;;9.40;99.90;;;;;;6070150;23;20418;-79
2021/10/07 07:50:31;;;;;;;1.90;1.80;;;9.50;99.90;;;;;;6112268;23;20991;-79
2021/10/07 07:53:17;;;;;;;2.40;2.17;;;9.60;99.90;;;;;;6092236;23;20909;-80
2021/10/07 07:56:03;;;;;;;1.90;1.80;;;9.70;99.90;;;;;;6070590;23;20420;-79
2021/10/07 07:58:49;;;;;;;1.63;1.52;;;9.70;99.90;;;;;;6093288;23;20418;-80
2021/10/07 08:01:36;;;;;;;1.67;1.58;;;9.90;99.90;;;;;;6075220;23;20832;-79
2021/10/07 08:04:22;;;;;;;1.80;1.70;;;10.00;99.90;;;;;;6103960;23;20419;-80
2021/10/07 08:07:08;;;;;;;1.77;1.67;;;10.10;99.90;;;;;;6106898;23;20420;-80
2021/10/07 08:09:54;;;;;;;2.63;2.42;;;10.30;99.90;;;;;;6100433;23;20469;-80
2021/10/07 08:12:39;;;;;;;1.70;1.58;;;10.40;99.90;;;;;;6127640;23;22084;-79
2021/10/07 08:15:25;;;;;;;2.50;2.30;;;10.50;99.90;;;;;;6106517;23;20379;-79
2021/10/07 08:18:13;;;;;;;1.80;1.67;;;10.60;99.90;;;;;;6081089;23;20376;-80
2021/10/07 08:20:58;;;;;;;2.25;2.05;;;10.70;99.90;;;;;;6106896;23;20741;-80
2021/10/07 08:23:44;;;;;;;2.33;2.13;;;10.80;99.90;;;;;;6087632;23;20376;-80
2021/10/07 08:26:30;;;;;;;3.15;2.25;;;10.90;99.90;;;;;;6106808;23;20431;-80
2021/10/07 08:29:15;;;;;;;2.13;2.03;;;11.00;99.90;;;;;;6125640;23;20765;-80
2021/10/07 08:32:01;;;;;;;2.08;1.92;;;11.10;99.90;;;;;;6070427;23;20507;-79
2021/10/07 08:34:46;;;;;;;1.98;1.88;;;11.20;99.90;;;;;;6094721;23;20376;-79
2021/10/07 08:37:33;;;;;;;2.10;2.00;;;11.30;99.90;;;;;;6134897;23;20847;-80
2021/10/07 08:40:19;;;;;;;2.22;2.08;;;11.40;99.90;;;;;;6084826;23;20894;-80
2021/10/07 08:43:05;;;;;;;1.85;1.75;;;11.50;99.90;;;;;;6110888;23;20856;-80
2021/10/07 08:45:50;;;;;;;2.00;1.90;;;11.70;99.90;;;;;;6111595;23;20427;-79
2021/10/07 08:48:35;;;;;;;1.98;1.88;;;11.80;99.90;;;;;;6114774;23;20810;-79
2021/10/07 08:51:21;;;;;;;2.43;2.23;;;11.90;99.90;;;;;;6118244;23;20406;-80
2021/10/07 08:54:06;;;;;;;1.90;1.80;;;12.00;99.90;;;;;;6078029;23;20373;-79
2021/10/07 08:56:52;;;;;;;2.33;2.13;;;12.10;99.90;;;;;;6109395;23;20383;-79
2021/10/07 08:59:37;;;;;;;3.30;2.20;;;12.20;99.90;;;;;;6112322;23;20380;-80
2021/10/07 09:02:28;;;;;;;2.35;2.15;;;12.40;99.90;;;;;;6077367;23;20384;-80
2021/10/07 09:05:16;;;;;;;2.22;2.03;;;12.50;99.90;;;;;;6088788;23;20397;-79
2021/10/07 09:08:09;;;;;;;2.30;2.10;;;12.70;99.90;;;;;;6059508;23;20372;-79
2021/10/07 09:10:56;;;;;;;1.80;1.70;;;12.80;99.90;;;;;;6074931;23;20754;-79
2021/10/07 09:13:41;;;;;;;2.40;2.20;;;12.90;99.90;;;;;;6106103;23;20388;-80
2021/10/07 09:16:29;;;;;;;2.40;2.17;;;13.00;99.90;;;;;;6097775;23;20366;-79
2021/10/07 09:19:32;;;;;;;1.70;1.60;;;13.10;99.90;;;;;;6091605;23;20404;-79
2021/10/07 09:22:23;;;;;;;2.58;1.77;;;13.20;99.90;;;;;;6108901;23;20375;-79
2021/10/07 09:25:08;;;;;;;2.80;1.97;;;13.30;99.90;;;;;;6064669;23;20379;-79
2021/10/07 09:27:53;;;;;;;2.10;1.90;;;13.50;99.90;;;;;;6104332;23;20375;-80
2021/10/07 09:30:37;;;;;;;3.40;1.70;;;13.60;99.90;;;;;;6088744;23;20381;-80
2021/10/07 09:33:28;;;;;;;1.70;1.60;;;13.80;99.90;;;;;;6065465;23;20908;-79
2021/10/07 09:36:18;;;;;;;2.38;1.75;;;13.80;99.90;;;;;;6107033;23;20853;-79
2021/10/07 09:39:03;;;;;;;1.93;1.83;;;14.00;99.90;;;;;;6068173;23;20697;-80
2021/10/07 09:41:49;;;;;;;1.30;1.20;;;14.10;99.90;;;;;;6048623;23;20387;-80
2021/10/07 09:44:34;;;;;;;1.80;1.70;;;14.30;99.90;;;;;;6073250;23;20436;-80
2021/10/07 09:47:28;;;;;;;1.45;1.35;;;14.40;99.90;;;;;;6097001;23;20402;-80
2021/10/07 09:50:16;;;;;;;1.40;1.30;;;14.50;99.90;;;;;;6051132;23;20383;-79
2021/10/07 09:53:03;;;;;;;1.48;1.38;;;14.60;99.90;;;;;;6084475;23;20379;-79
2021/10/07 09:55:50;;;;;;;1.30;1.20;;;14.70;99.90;;;;;;6095255;23;20377;-80
2021/10/07 09:58:42;;;;;;;1.00;1.00;;;14.80;99.90;;;;;;6095494;23;20747;-79
2021/10/07 10:01:27;;;;;;;1.30;1.20;;;14.90;99.90;;;;;;6104023;23;20510;-80
2021/10/07 10:04:13;;;;;;;1.37;1.27;;;15.00;99.90;;;;;;6138846;23;20386;-80
2021/10/07 10:06:58;;;;;;;1.37;1.27;;;15.10;99.90;;;;;;6100470;23;20374;-80
2021/10/07 10:09:43;;;;;;;1.77;1.47;;;15.20;99.90;;;;;;6097154;23;20390;-79
2021/10/07 10:12:28;;;;;;;1.50;1.40;;;15.40;99.90;;;;;;6119503;23;20386;-79
2021/10/07 10:15:17;;;;;;;1.17;1.17;;;15.50;99.90;;;;;;6119256;23;20378;-80
2021/10/07 10:18:07;;;;;;;1.23;1.20;;;15.70;99.90;;;;;;6100877;23;20381;-79
2021/10/07 10:20:52;;;;;;;2.42;1.30;;;15.80;99.90;;;;;;6120222;23;20378;-79
2021/10/07 10:23:37;;;;;;;1.30;1.20;;;15.90;99.90;;;;;;6089659;23;20415;-79
2021/10/07 10:26:22;;;;;;;1.30;1.20;;;16.10;99.90;;;;;;6111561;23;20405;-80
2021/10/07 10:29:19;;;;;;;1.30;1.20;;;16.20;99.90;;;;;;6112250;23;20923;-79
2021/10/07 10:32:05;;;;;;;1.63;1.52;;;16.40;99.90;;;;;;6091742;23;20398;-79
2021/10/07 10:34:49;;;;;;;2.75;1.35;;;16.60;99.90;;;;;;6115647;23;20777;-80
2021/10/07 10:37:35;;;;;;;1.55;1.45;;;16.70;99.90;;;;;;6115662;23;20375;-79
2021/10/07 10:40:21;;;;;;;1.33;1.23;;;16.90;99.90;;;;;;6116485;23;20396;-80
2021/10/07 10:43:18;;;;;;;1.10;1.10;;;17.20;99.90;;;;;;6111251;23;20384;-79
2021/10/07 10:46:05;;;;;;;1.02;1.02;;;17.40;99.90;;;;;;6111411;23;20882;-80
2021/10/07 10:48:51;;;;;;;1.70;1.20;;;17.70;99.90;;;;;;6109277;23;20878;-79
2021/10/07 10:51:35;;;;;;;1.15;1.08;;;18.00;99.90;;;;;;6110419;23;20432;-81
2021/10/07 10:54:20;;;;;;;0.85;0.85;;;18.10;99.90;;;;;;6113492;23;20370;-79
2021/10/07 10:57:05;;;;;;;2.00;1.08;;;18.50;99.90;;;;;;6097464;23;20423;-80
2021/10/07 10:59:50;;;;;;;1.10;1.00;;;18.40;99.90;;;;;;6111191;23;20876;-79
2021/10/07 11:02:36;;;;;;;0.97;0.97;;;18.90;99.90;;;;;;6105859;23;20411;-79
2021/10/07 11:05:27;;;;;;;1.08;0.98;;;19.40;99.90;;;;;;6127225;23;20521;-80
2021/10/07 11:08:13;;;;;;;1.10;1.00;;;19.70;99.90;;;;;;6147167;23;20939;-80
2021/10/07 11:10:58;;;;;;;0.90;0.90;;;19.80;99.90;;;;;;6139402;23;20375;-79
2021/10/07 11:13:46;;;;;;;0.80;0.80;;;19.60;99.90;;;;;;6116996;23;20426;-80
2021/10/07 11:16:32;;;;;;;0.80;0.80;;;20.10;99.90;;;;;;6140673;23;20809;-80
2021/10/07 11:19:16;;;;;;;1.00;1.00;;;19.70;99.90;;;;;;6103130;23;20378;-79
2021/10/07 11:22:11;;;;;;;1.02;1.02;;;20.10;99.90;;;;;;6063774;23;20413;-79
2021/10/07 11:24:56;;;;;;;1.20;1.10;;;20.70;99.90;;;;;;6103215;23;20410;-80
2021/10/07 11:27:41;;;;;;;4.80;1.17;;;20.90;99.90;;;;;;6125729;23;20739;-81
2021/10/07 11:30:28;;;;;;;1.20;1.10;;;21.40;99.90;;;;;;6133301;23;20888;-80
2021/10/07 11:33:13;;;;;;;1.20;1.07;;;21.80;99.90;;;;;;6145492;23;20884;-80
2021/10/07 11:36:00;;;;;;;0.82;0.82;;;21.70;99.90;;;;;;6127843;23;20848;-79
2021/10/07 11:38:46;;;;;;;1.00;1.00;;;21.30;99.90;;;;;;6118130;23;20461;-79
2021/10/07 11:41:35;;;;;;;1.15;1.05;;;21.30;99.90;;;;;;6081228;23;20389;-80
2021/10/07 11:44:19;;;;;;;0.90;0.90;;;22.00;99.90;;;;;;6122124;23;20778;-80
2021/10/07 11:47:03;;;;;;;1.25;1.15;;;22.30;99.90;;;;;;6096018;23;20426;-80
2021/10/07 11:49:48;;;;;;;1.10;1.10;;;22.70;99.90;;;;;;6094129;23;20414;-80
2021/10/07 11:52:33;;;;;;;1.60;0.95;;;23.10;99.90;;;;;;6122579;23;20975;-81
2021/10/07 11:55:19;;;;;;;0.95;0.95;;;22.70;99.90;;;;;;6142937;23;20397;-79
2021/10/07 11:58:03;;;;;;;1.13;1.08;;;23.10;99.90;;;;;;6126533;23;20452;-80
2021/10/07 12:00:49;;;;;;;1.33;1.23;;;23.50;99.90;;;;;;6132114;23;20481;-79
2021/10/07 12:03:35;;;;;;;1.30;1.20;;;23.50;99.90;;;;;;6122127;23;20752;-79
2021/10/07 12:06:20;;;;;;;1.40;0.95;;;23.60;99.90;;;;;;6084756;23;20373;-79
2021/10/07 12:09:09;;;;;;;2.00;0.85;;;23.70;99.90;;;;;;6103614;23;20870;-80
2021/10/07 12:11:54;;;;;;;1.27;1.10;;;23.20;99.90;;;;;;6064850;23;20422;-80
2021/10/07 12:14:41;;;;;;;0.98;0.90;;;23.30;99.90;;;;;;6079534;23;20446;-81
2021/10/07 12:17:26;;;;;;;1.10;1.10;;;23.40;99.90;;;;;;6122912;23;20405;-79
2021/10/07 12:20:11;;;;;;;0.82;0.82;;;23.30;99.90;;;;;;6101548;23;20799;-80
2021/10/07 12:23:04;;;;;;;1.25;1.15;;;23.20;99.90;;;;;;6061597;23;20374;-81
2021/10/07 12:25:53;;;;;;;1.15;1.08;;;22.60;99.90;;;;;;6125486;23;20370;-80
2021/10/07 12:28:42;;;;;;;1.35;1.27;;;22.50;99.90;;;;;;6080303;23;20457;-80
2021/10/07 12:31:30;;;;;;;2.33;0.90;;;21.90;99.90;;;;;;6116862;23;21379;-80
2021/10/07 12:34:16;;;;;;;0.93;0.93;;;21.90;99.90;;;;;;6099020;23;20394;-80
2021/10/07 12:37:03;;;;;;;1.70;1.30;;;21.90;99.90;;;;;;6100574;23;20374;-80
2021/10/07 12:39:50;;;;;;;1.17;1.08;;;20.60;99.90;;;;;;6121959;23;20389;-80
2021/10/07 12:42:37;;;;;;;1.23;1.23;;;20.70;99.90;;;;;;6124304;23;20748;-80
2021/10/07 12:45:23;;;;;;;0.98;0.85;;;20.70;99.90;;;;;;6122729;23;20450;-80
2021/10/07 12:48:08;;;;;;;1.40;1.27;;;20.80;99.90;;;;;;6082660;23;20370;-80
2021/10/07 12:50:54;;;;;;;1.13;1.07;;;20.70;99.90;;;;;;6102134;23;20851;-80
2021/10/07 12:53:41;;;;;;;1.10;1.10;;;20.70;99.90;;;;;;6141639;23;20366;-80
2021/10/07 12:56:30;;;;;;;1.00;1.00;;;20.50;99.90;;;;;;6100328;23;20704;-80
2021/10/07 12:59:16;;;;;;;0.80;0.80;;;20.50;99.90;;;;;;6103534;23;20402;-80
2021/10/07 13:02:01;;;;;;;2.10;1.10;;;20.60;99.90;;;;;;6091315;23;20406;-80
2021/10/07 13:04:47;;;;;;;0.93;0.93;;;20.30;99.90;;;;;;6082979;23;20378;-80
2021/10/07 13:07:32;;;;;;;0.93;0.93;;;20.20;99.90;;;;;;6101372;23;20370;-80
2021/10/07 13:10:18;;;;;;;1.08;1.08;;;20.00;99.90;;;;;;6077999;23;20744;-80
2021/10/07 13:13:04;;;;;;;1.08;1.00;;;19.80;99.90;;;;;;6102547;23;20453;-80
2021/10/07 13:15:49;;;;;;;0.80;0.80;;;19.60;99.90;;;;;;6087588;23;20379;-80
2021/10/07 13:18:36;;;;;;;0.90;0.90;;;19.60;99.90;;;;;;6062551;23;20387;-79
2021/10/07 13:21:22;;;;;;;0.70;0.70;;;19.70;99.90;;;;;;6113286;23;20431;-80
2021/10/07 13:24:12;;;;;;;0.90;0.90;;;19.60;99.90;;;;;;6121414;23;20759;-80
2021/10/07 13:27:02;;;;;;;0.70;0.70;;;19.60;99.90;;;;;;6112212;23;20449;-80
2021/10/07 13:29:49;;;;;;;0.70;0.70;;;19.50;99.90;;;;;;6067738;23;22184;-80
2021/10/07 13:32:35;;;;;;;0.90;0.90;;;19.50;99.90;;;;;;6095381;23;20494;-80
2021/10/07 13:35:24;;;;;;;1.27;0.90;;;19.50;99.90;;;;;;6122501;23;20358;-80
2021/10/07 13:38:10;;;;;;;0.85;0.85;;;19.50;99.90;;;;;;6074184;23;20756;-80
2021/10/07 13:40:58;;;;;;;0.90;0.90;;;19.30;99.90;;;;;;6098594;23;20427;-80
2021/10/07 13:43:46;;;;;;;3.00;1.00;;;19.10;99.90;;;;;;6072101;23;20448;-81
2021/10/07 13:46:35;;;;;;;0.90;0.90;;;19.00;99.90;;;;;;6077359;23;20444;-80
2021/10/07 13:49:23;;;;;;;0.80;0.80;;;18.90;99.90;;;;;;6106783;23;20499;-80
2021/10/07 13:52:10;;;;;;;0.70;0.70;;;19.00;99.90;;;;;;6111765;23;20375;-81
2021/10/07 13:54:57;;;;;;;0.80;0.80;;;19.10;99.90;;;;;;6092759;23;20453;-81
2021/10/07 13:57:43;;;;;;;0.80;0.80;;;18.90;99.90;;;;;;6104602;23;20430;-81
2021/10/07 14:00:29;;;;;;;0.88;0.88;;;18.90;99.90;;;;;;6082186;23;20425;-80
2021/10/07 14:03:14;;;;;;;0.80;0.80;;;18.90;99.90;;;;;;6117873;23;20445;-81
2021/10/07 14:06:03;;;;;;;0.80;0.80;;;18.90;99.90;;;;;;6149856;23;20389;-80
2021/10/07 14:08:49;;;;;;;0.68;0.68;;;18.80;99.90;;;;;;6126816;23;20706;-80
2021/10/07 14:11:34;;;;;;;0.70;0.70;;;18.80;99.90;;;;;;6122949;23;20420;-80
2021/10/07 14:14:19;;;;;;;0.75;0.75;;;18.70;99.90;;;;;;6143636;23;20738;-80
2021/10/07 14:17:07;;;;;;;0.98;0.98;;;18.70;99.90;;;;;;6101611;23;20377;-80
2021/10/07 14:19:54;;;;;;;0.70;0.70;;;18.70;99.90;;;;;;6128057;23;20706;-80
2021/10/07 14:22:39;;;;;;;0.85;0.85;;;18.60;99.90;;;;;;6113615;23;20373;-81
2021/10/07 14:25:26;;;;;;;0.70;0.70;;;18.50;99.90;;;;;;6132936;23;20437;-80
2021/10/07 14:28:15;;;;;;;0.73;0.73;;;18.40;99.90;;;;;;6088543;23;20380;-80
2021/10/07 14:31:01;;;;;;;0.75;0.75;;;18.40;99.90;;;;;;6131042;23;20374;-80
2021/10/07 14:33:49;;;;;;;0.60;0.60;;;18.30;99.90;;;;;;6107795;23;20365;-80
2021/10/07 14:36:36;;;;;;;0.82;0.82;;;18.20;99.90;;;;;;6107185;23;20368;-80
2021/10/07 14:39:28;;;;;;;1.40;0.93;;;18.20;99.90;;;;;;6149460;23;20372;-80
2021/10/07 14:42:14;;;;;;;0.70;0.70;;;18.10;99.90;;;;;;6131212;23;20445;-80
2021/10/07 14:45:02;;;;;;;0.70;0.70;;;17.90;99.90;;;;;;6127064;23;20852;-80
2021/10/07 14:47:49;;;;;;;0.70;0.70;;;18.00;99.90;;;;;;6100680;23;20368;-81
2021/10/07 14:50:35;;;;;;;0.70;0.70;;;18.00;99.90;;;;;;6146403;23;20392;-80
2021/10/07 14:53:21;;;;;;;0.88;0.88;;;18.00;99.90;;;;;;6128784;23;20447;-81
2021/10/07 14:56:28;;;;;;;0.90;0.90;;;18.00;99.90;;;;;;6104101;23;20380;-80
2021/10/07 14:59:36;;;;;;;1.58;1.05;;;18.00;99.90;;;;;;6152999;23;20427;-80
2021/10/07 15:02:44;;;;;;;1.05;1.05;;;18.00;99.90;;;;;;6106415;23;20459;-79
2021/10/07 15:05:37;;;;;;;2.40;2.08;;;18.00;99.90;;;;;;6132929;23;20464;-80
2021/10/07 15:08:28;;;;;;;2.30;1.92;;;18.00;99.90;;;;;;6110707;23;20389;-80
2021/10/07 15:11:16;;;;;;;1.52;1.42;;;18.00;99.90;;;;;;6124804;23;20423;-80
2021/10/07 15:14:04;;;;;;;6.22;3.40;;;18.00;99.90;;;;;;6148528;23;20380;-81
2021/10/07 15:16:52;;;;;;;3.00;2.70;;;18.00;99.90;;;;;;6118691;23;20364;-80
2021/10/07 15:19:38;;;;;;;3.15;2.25;;;18.00;99.90;;;;;;6099160;23;20726;-80
2021/10/07 15:22:28;;;;;;;5.35;3.53;;;17.90;99.90;;;;;;6115684;23;20687;-80
2021/10/07 15:25:19;;;;;;;2.00;1.90;;;17.80;99.90;;;;;;6093087;23;20411;-81
2021/10/07 15:28:05;;;;;;;1.65;1.55;;;17.80;99.90;;;;;;6118646;23;20398;-80
2021/10/07 15:30:52;;;;;;;1.90;1.48;;;17.80;99.90;;;;;;6099921;23;20965;-80
2021/10/07 15:33:38;;;;;;;1.30;1.20;;;17.70;99.90;;;;;;6118558;23;20366;-80
2021/10/07 15:36:27;;;;;;;1.60;1.50;;;17.70;99.90;;;;;;6129174;23;20455;-80
2021/10/07 15:39:18;;;;;;;1.70;1.60;;;17.60;99.90;;;;;;6069135;23;20373;-81
2021/10/07 15:42:06;;;;;;;1.85;1.75;;;17.50;99.90;;;;;;6141964;23;20370;-80
2021/10/07 15:44:55;;;;;;;2.25;1.77;;;17.50;99.90;;;;;;6121201;23;20369;-81
2021/10/07 15:47:41;;;;;;;2.25;1.60;;;17.50;99.90;;;;;;6097242;23;20370;-81
2021/10/07 15:50:29;;;;;;;1.52;1.42;;;17.50;99.90;;;;;;6147921;23;20376;-80
2021/10/07 15:53:14;;;;;;;2.58;1.25;;;17.50;99.90;;;;;;6112291;23;20386;-80
2021/10/07 15:56:01;;;;;;;1.40;1.23;;;17.40;99.90;;;;;;6096247;23;20421;-80
2021/10/07 15:58:47;;;;;;;1.25;1.15;;;17.30;99.90;;;;;;6078284;23;20370;-81
2021/10/07 16:01:34;;;;;;;1.13;1.13;;;17.30;99.90;;;;;;6097279;23;20377;-81
2021/10/07 16:04:23;;;;;;;1.40;1.30;;;17.10;99.90;;;;;;6115669;23;20734;-80
2021/10/07 16:07:11;;;;;;;1.10;1.10;;;17.00;99.90;;;;;;6146384;23;20361;-81
2021/10/07 16:09:57;;;;;;;1.60;1.00;;;16.80;99.90;;;;;;6123921;23;20380;-81
2021/10/07 16:12:44;;;;;;;2.45;1.30;;;16.80;99.90;;;;;;6110162;23;20496;-80
2021/10/07 16:15:30;;;;;;;0.90;0.90;;;16.80;99.90;;;;;;6107008;23;20443;-81
2021/10/07 16:18:19;;;;;;;0.85;0.85;;;16.80;99.90;;;;;;6107566;23;20449;-81
2021/10/07 16:21:05;;;;;;;0.90;0.90;;;16.70;99.90;;;;;;6146362;23;20480;-81
2021/10/07 16:23:50;;;;;;;0.90;0.90;;;16.70;99.90;;;;;;6133686;23;20419;-81
2021/10/07 16:26:43;;;;;;;1.00;1.00;;;16.60;99.90;;;;;;6136734;23;21320;-80
2021/10/07 16:29:30;;;;;;;1.13;1.02;;;16.50;99.90;;;;;;6134529;23;20457;-81
2021/10/07 16:32:17;;;;;;;1.03;0.93;;;16.30;99.90;;;;;;6085762;23;20372;-80
2021/10/07 16:35:03;;;;;;;1.10;1.10;;;16.20;99.90;;;;;;6127977;23;20628;-80
2021/10/07 16:37:50;;;;;;;1.00;1.00;;;16.10;99.90;;;;;;6090897;23;20373;-80
2021/10/07 16:40:36;;;;;;;0.90;0.90;;;16.00;99.90;;;;;;6130135;23;20437;-81
2021/10/07 16:43:21;;;;;;;1.50;1.00;;;15.90;99.90;;;;;;6112559;23;20392;-80
2021/10/07 16:46:08;;;;;;;1.15;1.08;;;15.80;99.90;;;;;;6114369;23;20387;-81
2021/10/07 16:48:56;;;;;;;1.20;1.10;;;15.70;99.90;;;;;;6114502;23;20428;-81
2021/10/07 16:51:41;;;;;;;1.17;1.10;;;15.60;99.90;;;;;;6131323;23;20375;-79
2021/10/07 16:54:27;;;;;;;1.00;1.00;;;15.60;99.90;;;;;;6090639;23;20384;-81
2021/10/07 16:57:13;;;;;;;1.00;1.00;;;15.50;99.90;;;;;;6144703;23;20820;-80
2021/10/07 17:00:00;;;;;;;1.00;1.00;;;15.50;99.90;;;;;;6113502;23;20712;-80
2021/10/07 17:02:46;;;;;;;1.42;1.33;;;15.50;99.90;;;;;;6100024;23;20386;-81
2021/10/07 17:05:32;;;;;;;2.70;2.45;;;15.50;99.90;;;;;;6098559;23;20474;-80
2021/10/07 17:08:24;;;;;;;3.00;2.60;;;15.50;99.90;;;;;;6093077;23;20425;-80
2021/10/07 17:11:12;;;;;;;2.47;2.13;;;15.40;99.90;;;;;;6111784;23;20450;-80
2021/10/07 17:13:58;;;;;;;2.13;1.90;;;15.40;99.90;;;;;;6108334;23;20389;-80
2021/10/07 17:16:46;;;;;;;2.20;1.88;;;15.30;99.90;;;;;;6129082;23;20415;-80
2021/10/07 17:19:31;;;;;;;1.35;1.30;;;15.30;99.90;;;;;;6096133;23;20761;-81
2021/10/07 17:22:17;;;;;;;1.38;1.27;;;15.30;99.90;;;;;;6079015;23;20381;-79
2021/10/07 17:25:07;;;;;;;1.55;1.45;;;15.30;99.90;;;;;;6117760;23;20398;-80
2021/10/07 17:27:56;;;;;;;1.20;1.17;;;15.20;99.90;;;;;;6117227;23;20861;-80
2021/10/07 17:30:42;;;;;;;1.50;1.40;;;15.20;99.90;;;;;;6075757;23;20389;-80
2021/10/07 17:33:28;;;;;;;1.60;1.50;;;15.30;99.90;;;;;;6082036;23;20433;-79
2021/10/07 17:36:15;;;;;;;1.58;1.48;;;15.30;99.90;;;;;;6124048;23;20702;-80
2021/10/07 17:39:03;;;;;;;1.27;1.27;;;15.30;99.90;;;;;;6119504;23;20376;-80
2021/10/07 17:41:50;;;;;;;1.60;1.50;;;15.30;99.90;;;;;;6090922;23;20398;-80
2021/10/07 17:44:43;;;;;;;1.50;1.40;;;15.30;99.90;;;;;;6140483;23;20402;-81
2021/10/07 17:47:32;;;;;;;1.30;1.30;;;15.40;99.90;;;;;;6104100;23;20374;-81
2021/10/07 17:56:17;;;;;;;1.45;1.35;;;15.40;99.90;;;;;;6203940;23;20365;-89
2021/10/07 17:59:02;;;;;;;1.33;1.23;;;15.40;99.90;;;;;;6159266;23;20430;-89
2021/10/07 18:01:46;;;;;;;1.70;1.60;;;15.40;99.90;;;;;;6132297;23;20355;-89
2021/10/07 18:04:32;;;;;;;1.60;1.50;;;15.40;99.90;;;;;;6151807;23;20343;-88
2021/10/07 18:07:18;;;;;;;1.30;1.30;;;15.40;99.90;;;;;;6151906;23;20366;-90
2021/10/07 18:10:03;;;;;;;1.65;1.55;;;15.30;99.90;;;;;;6128211;23;20387;-90
2021/10/07 18:12:50;;;;;;;1.52;1.40;;;15.30;99.90;;;;;;6131948;23;20377;-90
2021/10/07 18:15:35;;;;;;;1.40;1.30;;;15.30;99.90;;;;;;6152080;23;20361;-91
2021/10/07 18:18:19;;;;;;;1.40;1.30;;;15.40;99.90;;;;;;6149975;23;20422;-91
2021/10/07 18:21:04;;;;;;;1.52;1.42;;;15.40;99.90;;;;;;6151079;23;20581;-90
2021/10/07 18:23:49;;;;;;;1.73;1.63;;;15.40;99.90;;;;;;6150780;23;20370;-85
2021/10/07 18:26:34;;;;;;;1.60;1.50;;;15.40;99.90;;;;;;6131654;23;20441;-88
2021/10/07 18:29:18;;;;;;;2.10;2.00;;;15.40;99.90;;;;;;6150252;23;20399;-89
2021/10/07 18:32:03;;;;;;;1.60;1.50;;;15.40;99.90;;;;;;6151368;23;20371;-88
2021/10/07 18:34:47;;;;;;;1.70;1.60;;;15.30;99.90;;;;;;6170528;23;20370;-86
2021/10/07 18:37:31;;;;;;;2.73;1.80;;;15.20;99.90;;;;;;6151481;23;20501;-87
2021/10/07 18:40:16;;;;;;;2.08;1.88;;;15.30;99.90;;;;;;6142741;23;20527;-88
2021/10/07 18:43:00;;;;;;;2.30;2.10;;;15.30;99.90;;;;;;6121398;23;20392;-91
2021/10/07 18:45:45;;;;;;;2.30;2.10;;;15.30;99.90;;;;;;6122065;23;20383;-88
2021/10/07 18:48:32;;;;;;;2.40;2.08;;;15.30;99.90;;;;;;6151053;23;20426;-88
2021/10/07 18:51:17;;;;;;;2.53;2.33;;;15.30;99.90;;;;;;6140238;23;20427;-90
2021/10/07 18:54:03;;;;;;;2.60;2.40;;;15.30;99.90;;;;;;6180183;23;20388;-89
2021/10/07 18:56:48;;;;;;;2.72;2.53;;;15.30;99.90;;;;;;6130965;23;20385;-89
2021/10/07 18:59:32;;;;;;;2.85;2.58;;;15.30;99.90;;;;;;6147876;23;20354;-88
2021/10/07 19:02:16;;;;;;;2.83;2.55;;;15.30;99.90;;;;;;6175212;23;20378;-90
2021/10/07 19:05:01;;;;;;;2.90;2.70;;;15.30;99.90;;;;;;6151192;23;20366;-91
2021/10/07 19:07:45;;;;;;;2.83;2.38;;;15.30;99.90;;;;;;6169896;23;20699;-87
2021/10/07 19:10:29;;;;;;;3.40;3.10;;;15.30;99.90;;;;;;6155404;23;20445;-87
2021/10/07 19:13:20;;;;;;;2.35;2.13;;;15.30;99.90;;;;;;6186286;23;20370;-90
2021/10/07 19:16:04;;;;;;;2.60;2.40;;;15.30;99.90;;;;;;6170257;23;20390;-87
2021/10/07 19:18:50;;;;;;;3.30;3.00;;;15.30;99.90;;;;;;6128737;23;20426;-90
2021/10/07 19:21:34;;;;;;;2.85;2.58;;;15.40;99.90;;;;;;6172744;23;20451;-88
2021/10/07 19:24:18;;;;;;;2.72;2.53;;;15.30;99.90;;;;;;6180259;23;20610;-88
2021/10/07 19:27:03;;;;;;;2.70;2.50;;;15.30;99.90;;;;;;6139140;23;20355;-88